createdAt,value
2024-05-09T00:03:33.959Z,99366.35
2024-05-09T00:09:55.514Z,99363.89
2024-05-09T00:16:17.018Z,99352.52
2024-05-09T00:21:42.835Z,99349.39
2024-05-09T00:27:44.423Z,99347.77
2024-05-09T00:34:06.033Z,99340.02
2024-05-09T00:40:37.232Z,99335.76
2024-05-09T00:46:02.092Z,99332.26
2024-05-09T00:51:04.742Z,99328.58
2024-05-09T00:56:09.864Z,99336.37
2024-05-09T01:02:11.667Z,99343.98
2024-05-09T01:08:34.064Z,99353.34
2024-05-09T01:14:52.054Z,99351.37
2024-05-09T01:20:53.613Z,99361.65
2024-05-09T01:27:15.134Z,99363.27
2024-05-09T01:33:37.108Z,99363.95
2024-05-09T01:38:59.271Z,99363.64
2024-05-09T01:44:01.198Z,99363.89
2024-05-09T01:49:04.590Z,99364.13
2024-05-09T01:54:06.564Z,99366.73
2024-05-09T02:00:10.244Z,99360.27
2024-05-09T02:06:32.048Z,99362.73
2024-05-09T02:12:53.600Z,99367.61
2024-05-09T02:19:15.298Z,99359.16
2024-05-09T02:24:38.655Z,99361.96
2024-05-09T02:30:39.818Z,99362.02
2024-05-09T02:35:44.303Z,99365.45
2024-05-09T02:40:46.444Z,99362.55
2024-05-09T02:45:48.819Z,99362.23
2024-05-09T02:51:50.590Z,99361.93
2024-05-09T02:58:12.065Z,99361.34
2024-05-09T03:03:34.476Z,99362.81
2024-05-09T03:09:36.285Z,99365.44
2024-05-09T03:15:57.749Z,99364.83
2024-05-09T03:22:29.212Z,99366.88
2024-05-09T03:28:50.716Z,99365.64
2024-05-09T03:34:54.426Z,99366.66
2024-05-09T03:39:56.353Z,99362.73
2024-05-09T03:44:58.304Z,99363.23
2024-05-09T03:50:00.282Z,99363.41
2024-05-09T03:56:01.943Z,99362.05
2024-05-09T04:02:23.724Z,99367.48
2024-05-09T04:08:45.501Z,99377.25
2024-05-09T04:15:09.664Z,99378.06
2024-05-09T04:20:38.714Z,99381.79
2024-05-09T04:26:42.244Z,99389.64
2024-05-09T04:32:05.253Z,99392.33
2024-05-09T04:37:07.229Z,99396.39
2024-05-09T04:42:09.237Z,99396.77
2024-05-09T04:48:14.861Z,99396.42
2024-05-09T04:53:17.069Z,99399.11
2024-05-09T04:59:18.937Z,99402.45
2024-05-09T05:05:22.794Z,99413.70
2024-05-09T05:11:44.536Z,99417.86
2024-05-09T05:17:06.496Z,99414.58
2024-05-09T05:23:08.127Z,99422.85
2024-05-09T05:29:29.715Z,99429.59
2024-05-09T05:35:51.271Z,99432.95
2024-05-09T05:41:13.121Z,99426.98
2024-05-09T05:46:14.982Z,99424.70
2024-05-09T05:51:16.709Z,99434.27
2024-05-09T05:57:18.311Z,99434.94
2024-05-09T06:03:39.927Z,99430.73
2024-05-09T06:10:01.526Z,99425.34
2024-05-09T06:15:23.195Z,99425.33
2024-05-09T06:20:34.577Z,99431.37
2024-05-09T06:26:38.762Z,99435.17
2024-05-09T06:32:20.441Z,99433.66
2024-05-09T06:37:22.764Z,99427.36
2024-05-09T06:42:24.550Z,99437.93
2024-05-09T06:48:26.220Z,99437.52
2024-05-09T06:54:47.786Z,99429.84
2024-05-09T07:01:09.435Z,99433.06
2024-05-09T07:07:30.906Z,99427.73
2024-05-09T07:12:53.011Z,99424.88
2024-05-09T07:17:54.938Z,99428.83
2024-05-09T07:23:56.887Z,99434.89
2024-05-09T07:29:39.396Z,99439.84
2024-05-09T07:34:41.350Z,99437.41
2024-05-09T07:40:42.895Z,99441.88
2024-05-09T07:48:14.305Z,99437.39
2024-05-09T07:53:49.427Z,99435.63
2024-05-09T07:59:41.480Z,99432.57
2024-05-09T08:04:43.370Z,99430.41
2024-05-09T08:09:45.868Z,99430.20
2024-05-09T08:15:47.538Z,99430.81
2024-05-09T08:22:09.263Z,99428.31
2024-05-09T08:28:31.144Z,99429.59
2024-05-09T08:34:52.710Z,99431.44
2024-05-09T08:41:24.266Z,99429.30
2024-05-09T08:47:45.905Z,99435.74
2024-05-09T08:53:47.494Z,99436.58
2024-05-09T08:59:49.065Z,99431.52
2024-05-09T09:06:10.595Z,99435.02
2024-05-09T09:12:32.126Z,99436.77
2024-05-09T09:18:44.874Z,99436.42
2024-05-09T09:24:46.803Z,99434.59
2024-05-09T09:31:08.651Z,99430.80
2024-05-09T09:37:30.241Z,99424.42
2024-05-09T09:43:51.745Z,99426.59
2024-05-09T09:50:17.076Z,99420.30
2024-05-09T09:56:42.481Z,99420.97
2024-05-09T10:03:04.044Z,99419.77
2024-05-09T10:09:25.543Z,99420.57
2024-05-09T10:14:53.611Z,99423.33
2024-05-09T10:20:14.440Z,99412.84
2024-05-09T10:25:23.739Z,99412.11
2024-05-09T10:30:34.038Z,99408.85
2024-05-09T10:35:38.285Z,99405.53
2024-05-09T10:41:39.800Z,99399.38
2024-05-09T10:48:01.582Z,99392.16
2024-05-09T10:54:23.140Z,99388.53
2024-05-09T11:00:45.177Z,99385.06
2024-05-09T11:06:08.087Z,99380.94
2024-05-09T11:11:10.590Z,99376.00
2024-05-09T11:16:20.617Z,99375.26
2024-05-09T11:22:22.599Z,99366.67
2024-05-09T11:27:44.336Z,99371.42
2024-05-09T11:33:46.018Z,99373.55
2024-05-09T11:40:13.739Z,99364.32
2024-05-09T11:46:42.338Z,99352.52
2024-05-09T11:52:04.328Z,99351.80
2024-05-09T11:57:06.473Z,99349.95
2024-05-09T12:02:08.561Z,99360.24
2024-05-09T12:07:12.898Z,99360.56
2024-05-09T12:12:15.161Z,99357.21
2024-05-09T12:17:17.090Z,99353.52
2024-05-09T12:22:19.146Z,99346.92
2024-05-09T12:27:21.092Z,99332.96
2024-05-09T12:32:23.277Z,99328.86
2024-05-09T12:37:25.723Z,99326.11
2024-05-09T12:42:29.077Z,99320.09
2024-05-09T12:47:31.820Z,99322.83
2024-05-09T12:53:33.507Z,99319.73
2024-05-09T12:58:55.240Z,99306.04
2024-05-09T13:03:57.255Z,99293.99
2024-05-09T13:08:59.200Z,99287.18
2024-05-09T13:14:01.078Z,99287.62
2024-05-09T13:20:04.270Z,99289.74
2024-05-09T13:26:27.049Z,99287.42
2024-05-09T13:32:48.684Z,99282.03
2024-05-09T13:39:10.298Z,99276.75
2024-05-09T13:45:31.943Z,99268.71
2024-05-09T13:51:53.700Z,99260.13
2024-05-09T13:57:16.548Z,99256.23
2024-05-09T14:02:18.771Z,99256.81
2024-05-09T14:07:21.194Z,99257.38
2024-05-09T14:12:23.029Z,99251.56
2024-05-09T14:17:24.957Z,99242.34
2024-05-09T14:22:26.788Z,99237.92
2024-05-09T14:27:29.587Z,99242.64
2024-05-09T14:32:31.576Z,99243.39
2024-05-09T14:37:36.329Z,99237.92
2024-05-09T14:42:39.854Z,99234.08
2024-05-09T14:47:41.905Z,99228.89
2024-05-09T14:52:43.750Z,99230.77
2024-05-09T14:57:45.628Z,99224.44
2024-05-09T15:02:48.041Z,99219.70
2024-05-09T15:07:50.061Z,99221.10
2024-05-09T15:13:51.579Z,99214.94
2024-05-09T15:19:13.602Z,99210.38
2024-05-09T15:25:15.467Z,99209.61
2024-05-09T15:31:37.230Z,99211.28
2024-05-09T15:37:58.692Z,99211.67
2024-05-09T15:44:20.131Z,99210.25
2024-05-09T15:50:42.830Z,99204.19
2024-05-09T15:56:48.435Z,99200.89
2024-05-09T16:02:11.396Z,99196.29
2024-05-09T16:07:13.605Z,99194.65
2024-05-09T16:12:15.629Z,99192.79
2024-05-09T16:17:17.672Z,99184.11
2024-05-09T16:22:19.617Z,99181.70
2024-05-09T16:27:22.104Z,99179.48
2024-05-09T16:32:24.064Z,99178.74
2024-05-09T16:37:29.409Z,99179.16
2024-05-09T16:42:31.879Z,99172.52
2024-05-09T16:47:34.166Z,99174.40
2024-05-09T16:52:36.181Z,99174.52
2024-05-09T16:57:38.369Z,99169.99
2024-05-09T17:02:43.721Z,99171.19
2024-05-09T17:07:47.437Z,99175.20
2024-05-09T17:13:49.180Z,99180.23
2024-05-09T17:20:22.552Z,99175.98
2024-05-09T17:26:50.510Z,99172.81
2024-05-09T17:33:13.017Z,99176.77
2024-05-09T17:39:35.123Z,99175.30
2024-05-09T17:45:56.708Z,99174.88
2024-05-09T17:52:18.580Z,99177.63
2024-05-09T17:57:21.018Z,99180.13
2024-05-09T18:02:24.182Z,99186.70
2024-05-09T18:07:26.410Z,99190.36
2024-05-09T18:12:28.548Z,99187.44
2024-05-09T18:17:30.872Z,99187.84
2024-05-09T18:22:33.071Z,99192.18
2024-05-09T18:27:34.882Z,99193.58
2024-05-09T18:32:36.733Z,99197.23
2024-05-09T18:37:40.119Z,99201.48
2024-05-09T18:42:42.208Z,99209.48
2024-05-09T18:47:44.176Z,99214.61
2024-05-09T18:52:46.315Z,99217.79
2024-05-09T18:57:48.316Z,99224.95
2024-05-09T19:02:50.310Z,99229.45
2024-05-09T19:07:52.309Z,99235.80
2024-05-09T19:12:54.509Z,99234.81
2024-05-09T19:17:56.910Z,99243.98
2024-05-09T19:22:59.008Z,99246.06
2024-05-09T19:28:01.339Z,99252.54
2024-05-09T19:33:03.853Z,99253.18
2024-05-09T19:38:06.188Z,99255.66
2024-05-09T19:43:08.388Z,99261.56
2024-05-09T19:49:10.543Z,99261.09
2024-05-09T19:55:32.384Z,99258.98
2024-05-09T20:00:54.533Z,99257.77
2024-05-09T20:05:56.669Z,99263.13
2024-05-09T20:10:58.733Z,99266.92
2024-05-09T20:16:15.603Z,99268.27
2024-05-09T20:21:17.467Z,99269.64
2024-05-09T20:26:19.404Z,99276.86
2024-05-09T20:31:21.629Z,99277.16
2024-05-09T20:36:23.918Z,99277.79
2024-05-09T20:41:25.972Z,99277.04
2024-05-09T20:46:27.909Z,99275.70
2024-05-09T20:51:30.430Z,99275.66
2024-05-09T20:56:32.625Z,99279.71
2024-05-09T21:01:34.721Z,99277.76
2024-05-09T21:06:36.695Z,99273.90
2024-05-09T21:11:38.962Z,99271.38
2024-05-09T21:16:41.055Z,99271.96
2024-05-09T21:22:43.127Z,99275.06
2024-05-09T21:28:05.340Z,99274.63
2024-05-09T21:33:13.303Z,99271.33
2024-05-09T21:38:16.465Z,99269.80
2024-05-09T21:44:17.996Z,99268.94
2024-05-09T21:50:41.783Z,99265.56
2024-05-09T21:57:04.184Z,99265.44
2024-05-09T22:03:25.842Z,99262.02
2024-05-09T22:09:47.578Z,99259.66
2024-05-09T22:16:09.112Z,99260.82
2024-05-09T22:21:30.997Z,99254.98
2024-05-09T22:26:36.332Z,99260.23
2024-05-09T22:31:38.282Z,99258.80
2024-05-09T22:37:39.856Z,99255.84
2024-05-09T22:44:01.376Z,99255.48
2024-05-09T22:50:26.952Z,99258.72
2024-05-09T22:56:32.514Z,99262.90
2024-05-09T23:02:54.057Z,99259.73
2024-05-09T23:09:15.547Z,99256.86
2024-05-09T23:15:37.167Z,99256.70
2024-05-09T23:21:58.909Z,99251.77
2024-05-09T23:27:20.816Z,99248.02
2024-05-09T23:32:22.579Z,99247.11
2024-05-09T23:37:25.875Z,99245.53
2024-05-09T23:42:28.594Z,99250.09
2024-05-09T23:48:30.240Z,99248.66
2024-05-09T23:54:51.908Z,99241.71
